Flugplatz Paderborn Lippstadt

Bericht für EDLP

vom 14.11. um 09:20 UTC

Wind 9 kt aus 130°

Sichtweite 10 km oder mehr

gute Sicht, keine Wolken < 5000 ft, keine CB, keine Wettererscheinungen (CAVOK)

Temperatur 6.0°C

Taupunkt 1.0°C

Luftfeuchtigkeit 70%

Luftdruck 1004 hPa

EDLP 140920Z 13009KT 100V170 CAVOK 06/01 Q1004

Prognose für EDLP

vom 14.11. um 00:00 UTC

Zwischen 00:00 UTC und 00:00 UTC

Wind 10 kt aus 140°

Sichtweite 10 km oder mehr

keine signifikanten Wettererscheinungen

keine Wolken

TAF EDLP 140500Z 1406/1506 14010KT CAVOK
Impressum